Time;durP1;ratioP1;P1;durP2;ratioP2;P2;SDS_P1;SDS_P2;PMS_P1;PMS_P2;Temp;Humidity;BMP_temperature;BMP_pressure;BME280_temperature;BME280_humidity;BME280_pressure;Samples;Min_cycle;Max_cycle;Signal;HPM_P1;HPM_P2
2021/01/24 00:00:15;;;;;;;17.50;11.95;;;;;;;3.11;76.35;99383.56;10182577;28;20053;-69
2021/01/24 00:05:11;;;;;;;20.40;11.38;;;;;;;3.05;77.01;99382.06;10172266;28;20046;-69
2021/01/24 00:10:08;;;;;;;19.80;11.60;;;;;;;3.02;76.96;99377.28;10183922;28;20047;-69
2021/01/24 00:15:05;;;;;;;17.60;12.07;;;;;;;3.01;76.79;99378.34;10183174;28;20050;-68
2021/01/24 00:20:03;;;;;;;17.30;10.88;;;;;;;2.96;76.97;99373.06;10191245;28;20400;-68
2021/01/24 00:24:59;;;;;;;19.73;11.38;;;;;;;2.95;76.60;99366.88;10190469;28;20056;-68
2021/01/24 00:29:55;;;;;;;21.98;13.32;;;;;;;3.07;76.90;99379.88;10200206;28;20422;-68
2021/01/24 00:34:51;;;;;;;20.45;11.65;;;;;;;3.12;76.42;99382.47;10182348;28;20528;-68
2021/01/24 00:39:47;;;;;;;18.50;10.75;;;;;;;3.05;77.11;99386.66;10189910;28;20041;-69
2021/01/24 00:44:42;;;;;;;20.67;12.02;;;;;;;3.04;76.97;99391.28;10185484;28;20092;-68
2021/01/24 00:49:38;;;;;;;19.63;12.30;;;;;;;3.14;77.18;99393.75;10164386;28;20042;-68
2021/01/24 00:54:34;;;;;;;17.58;11.38;;;;;;;3.27;76.79;99391.34;10179175;28;20053;-67
2021/01/24 00:59:30;;;;;;;18.17;11.57;;;;;;;3.30;76.33;99396.16;10207189;28;20046;-69
2021/01/24 01:04:26;;;;;;;20.33;12.43;;;;;;;3.31;76.64;99381.53;10194994;28;20137;-69
2021/01/24 01:09:22;;;;;;;18.67;11.93;;;;;;;3.27;77.39;99378.66;10187094;28;20048;-68
2021/01/24 01:14:18;;;;;;;18.42;12.63;;;;;;;3.27;77.08;99383.25;10178960;28;20049;-68
2021/01/24 01:19:14;;;;;;;21.00;11.70;;;;;;;3.26;77.81;99387.84;10193073;28;20045;-69
2021/01/24 01:24:10;;;;;;;21.70;12.45;;;;;;;3.30;77.13;99382.66;10187576;28;20088;-69
2021/01/24 01:29:06;;;;;;;17.83;12.13;;;;;;;3.32;76.60;99380.47;10191616;28;20049;-68
2021/01/24 01:34:02;;;;;;;19.88;12.05;;;;;;;3.23;76.08;99376.88;10196221;28;20057;-68
2021/01/24 01:38:59;;;;;;;17.42;12.07;;;;;;;3.24;76.71;99387.34;10188329;28;20038;-66
2021/01/24 01:43:55;;;;;;;20.75;12.35;;;;;;;3.21;76.41;99379.06;10184844;28;20129;-66
2021/01/24 01:48:51;;;;;;;18.13;12.35;;;;;;;2.97;77.11;99380.06;10185335;28;20078;-66
2021/01/24 01:53:47;;;;;;;18.73;11.82;;;;;;;2.93;77.11;99376.38;10190784;28;20049;-66
2021/01/24 01:58:43;;;;;;;19.42;12.10;;;;;;;2.86;77.26;99378.66;10200025;28;20054;-67
2021/01/24 02:04:03;;;;;;;18.48;12.90;;;;;;;2.82;77.10;99372.25;10201577;28;20139;-67
2021/01/24 02:09:23;;;;;;;20.90;12.18;;;;;;;2.69;76.91;99374.66;10178543;28;20080;-66
2021/01/24 02:14:42;;;;;;;21.17;13.10;;;;;;;2.56;77.26;99370.03;10199553;28;20095;-68
2021/01/24 02:19:56;;;;;;;20.70;13.38;;;;;;;2.48;77.46;99379.63;10201670;28;20096;-67
2021/01/24 02:24:58;;;;;;;19.52;11.65;;;;;;;2.40;77.31;99372.19;10197337;28;20396;-67
2021/01/24 02:30:33;;;;;;;20.73;13.07;;;;;;;2.33;77.71;99373.69;10199877;28;20045;-68
2021/01/24 02:35:33;;;;;;;20.58;13.00;;;;;;;2.26;77.19;99377.53;10076298;28;20090;-67
2021/01/24 02:40:32;;;;;;;19.67;11.95;;;;;;;2.16;77.52;99393.09;10168433;28;20470;-66
2021/01/24 02:45:31;;;;;;;20.65;12.90;;;;;;;2.13;77.41;99393.69;10216125;28;20479;-66
2021/01/24 02:50:29;;;;;;;22.92;13.15;;;;;;;2.03;77.77;99389.25;10204211;28;20084;-68
2021/01/24 02:55:26;;;;;;;23.20;13.68;;;;;;;2.10;78.10;99393.16;10203742;28;20092;-69
2021/01/24 03:00:23;;;;;;;23.90;13.13;;;;;;;1.98;78.32;99397.44;10179931;28;20096;-69
2021/01/24 03:05:19;;;;;;;19.08;13.60;;;;;;;1.96;78.26;99394.22;10194140;28;20058;-69
2021/01/24 03:10:16;;;;;;;20.38;13.32;;;;;;;1.91;78.24;99391.59;10193350;28;20049;-69
2021/01/24 03:15:14;;;;;;;22.77;14.25;;;;;;;1.87;78.43;99391.38;10186052;28;20131;-68
2021/01/24 03:20:11;;;;;;;22.67;14.13;;;;;;;1.85;78.58;99394.34;10188296;28;20095;-69
2021/01/24 03:25:08;;;;;;;21.90;13.15;;;;;;;1.81;78.42;99385.28;10196655;28;20045;-70
2021/01/24 03:30:05;;;;;;;22.23;13.30;;;;;;;1.76;78.47;99385.31;10198199;28;20053;-69
2021/01/24 03:35:01;;;;;;;26.63;13.73;;;;;;;1.77;78.31;99389.63;10193981;28;20130;-71
2021/01/24 03:39:57;;;;;;;23.50;13.55;;;;;;;1.73;78.67;99383.22;10199750;28;20096;-66
2021/01/24 03:44:54;;;;;;;22.13;14.88;;;;;;;1.71;78.90;99390.00;10182251;28;20062;-67
2021/01/24 03:49:50;;;;;;;24.17;14.85;;;;;;;1.64;78.42;99393.03;10173878;28;20045;-68
2021/01/24 03:54:47;;;;;;;20.85;13.77;;;;;;;1.59;78.95;99396.63;10183136;28;20056;-68
2021/01/24 03:59:44;;;;;;;22.20;13.63;;;;;;;1.56;79.16;99401.78;10180514;28;20050;-68
2021/01/24 04:04:40;;;;;;;22.15;14.07;;;;;;;1.56;78.48;99396.41;10199761;28;20558;-69
2021/01/24 04:09:36;;;;;;;24.05;14.50;;;;;;;1.53;79.56;99402.34;10184392;28;20058;-67
2021/01/24 04:14:33;;;;;;;24.60;13.88;;;;;;;1.55;79.19;99397.47;10188869;28;20069;-69
2021/01/24 04:19:29;;;;;;;25.55;14.70;;;;;;;1.55;79.30;99397.47;10175797;28;20054;-70
2021/01/24 04:24:25;;;;;;;22.08;13.93;;;;;;;1.53;79.85;99391.59;10184779;28;20515;-68
2021/01/24 04:29:21;;;;;;;24.77;14.38;;;;;;;1.56;80.01;99388.31;10176418;28;20041;-67
2021/01/24 04:34:17;;;;;;;25.15;14.50;;;;;;;1.56;79.55;99396.41;10187170;28;20061;-70
2021/01/24 04:39:13;;;;;;;22.63;13.77;;;;;;;1.55;79.27;99390.19;10182703;28;20066;-70
2021/01/24 04:44:09;;;;;;;23.45;13.85;;;;;;;1.44;78.83;99378.78;10183319;28;20065;-71
2021/01/24 04:49:05;;;;;;;27.13;14.40;;;;;;;1.44;79.00;99377.97;10183063;28;20567;-70
2021/01/24 04:54:01;;;;;;;21.60;13.82;;;;;;;1.41;79.05;99373.94;10197641;28;20054;-69
2021/01/24 04:58:59;;;;;;;26.08;14.02;;;;;;;1.40;78.93;99377.75;10192919;28;20491;-69
2021/01/24 05:03:55;;;;;;;22.60;14.50;;;;;;;1.34;79.18;99370.81;10177223;28;20073;-69
2021/01/24 05:08:51;;;;;;;22.33;13.80;;;;;;;1.30;79.50;99372.50;10176754;28;20505;-67
2021/01/24 05:13:47;;;;;;;24.73;14.30;;;;;;;1.32;79.30;99378.38;10178455;28;20053;-66
2021/01/24 05:18:43;;;;;;;25.25;15.25;;;;;;;1.36;79.68;99368.63;10194561;28;20119;-65
2021/01/24 05:23:39;;;;;;;22.88;13.85;;;;;;;1.37;79.92;99367.56;10197035;28;20065;-67
2021/01/24 05:28:45;;;;;;;24.05;14.02;;;;;;;1.45;79.88;99369.59;10188677;28;20172;-68
2021/01/24 05:33:43;;;;;;;26.83;14.88;;;;;;;1.49;80.30;99369.03;10185728;28;20137;-69
2021/01/24 05:38:39;;;;;;;20.92;13.93;;;;;;;1.50;79.92;99371.41;10189288;28;20176;-70
2021/01/24 05:43:37;;;;;;;23.55;14.77;;;;;;;1.52;80.16;99371.13;10187544;28;20050;-71
2021/01/24 05:48:35;;;;;;;25.55;14.57;;;;;;;1.53;80.09;99375.41;10196599;28;20070;-70
2021/01/24 05:53:44;;;;;;;20.65;14.90;;;;;;;1.56;80.08;99374.84;10202847;28;20113;-70
2021/01/24 05:58:40;;;;;;;23.98;13.98;;;;;;;1.53;80.55;99375.41;10188250;28;20563;-71
2021/01/24 06:03:37;;;;;;;26.63;15.02;;;;;;;1.59;80.28;99385.03;10185688;28;20049;-68
2021/01/24 06:08:33;;;;;;;27.58;16.75;;;;;;;1.65;80.60;99383.88;10189523;28;20053;-68
2021/01/24 06:13:30;;;;;;;30.38;16.55;;;;;;;1.75;80.42;99389.13;10195129;28;20082;-68
2021/01/24 06:18:59;;;;;;;30.58;16.67;;;;;;;1.74;80.56;99398.31;10188237;28;20069;-69
2021/01/24 06:24:02;;;;;;;23.55;15.05;;;;;;;1.73;80.32;99399.38;10190572;28;20053;-67
2021/01/24 06:29:04;;;;;;;25.77;14.87;;;;;;;1.80;80.34;99413.28;10185257;28;20404;-67
2021/01/24 06:34:06;;;;;;;23.77;15.57;;;;;;;1.84;80.48;99417.03;10178327;28;20053;-68
2021/01/24 06:39:03;;;;;;;22.30;15.05;;;;;;;1.87;80.21;99413.72;10194142;28;20463;-67
2021/01/24 06:43:59;;;;;;;25.55;15.40;;;;;;;1.92;79.83;99425.53;10199749;28;20096;-68
2021/01/24 06:48:56;;;;;;;25.95;15.32;;;;;;;1.95;79.70;99433.03;10192679;28;20053;-68
2021/01/24 06:53:52;;;;;;;23.85;14.50;;;;;;;1.97;80.37;99438.94;10179177;28;20041;-68
2021/01/24 06:58:49;;;;;;;25.25;15.65;;;;;;;1.97;80.18;99436.25;10204389;28;20122;-69
2021/01/24 07:03:45;;;;;;;25.08;15.95;;;;;;;2.02;79.83;99442.38;10196314;28;20499;-69
2021/01/24 07:08:41;;;;;;;24.88;15.52;;;;;;;2.06;79.52;99453.38;10177612;28;20385;-68
2021/01/24 07:13:37;;;;;;;26.55;15.57;;;;;;;2.06;79.53;99437.19;10165321;28;20141;-67
2021/01/24 07:18:43;;;;;;;25.15;15.15;;;;;;;2.05;79.78;99457.97;10177448;28;20049;-68
2021/01/24 07:23:40;;;;;;;27.70;15.60;;;;;;;2.00;79.36;99459.94;10189240;28;20057;-67
2021/01/24 07:28:37;;;;;;;27.02;16.95;;;;;;;1.99;79.91;99475.28;10183286;28;20073;-67
2021/01/24 07:33:34;;;;;;;27.80;17.58;;;;;;;2.08;79.43;99472.75;10185180;28;20065;-67
2021/01/24 07:38:31;;;;;;;26.02;17.00;;;;;;;2.08;79.86;99483.53;10187056;28;20281;-67
2021/01/24 07:43:27;;;;;;;28.63;17.70;;;;;;;2.04;79.82;99493.28;10183422;28;20107;-67
2021/01/24 07:48:24;;;;;;;26.52;16.30;;;;;;;2.06;79.81;99491.13;10189017;28;20107;-67
2021/01/24 07:53:20;;;;;;;28.10;16.33;;;;;;;2.06;79.66;99496.50;10180089;28;20096;-67
2021/01/24 07:58:16;;;;;;;26.75;16.45;;;;;;;2.14;79.29;99493.16;10179746;28;20527;-68
2021/01/24 08:03:22;;;;;;;26.25;16.63;;;;;;;2.15;79.20;99505.53;10170588;28;20056;-68
2021/01/24 08:08:18;;;;;;;29.52;17.60;;;;;;;2.13;79.78;99502.34;10173742;28;20073;-68
2021/01/24 08:13:14;;;;;;;25.63;16.33;;;;;;;2.13;80.00;99512.31;10173851;28;20684;-67
2021/01/24 08:18:11;;;;;;;25.25;16.55;;;;;;;2.16;79.93;99511.72;10174237;28;20077;-69
2021/01/24 08:23:10;;;;;;;28.58;17.42;;;;;;;2.19;79.78;99520.06;10172290;28;20050;-67
2021/01/24 08:28:07;;;;;;;30.58;17.85;;;;;;;2.18;79.94;99521.16;10173543;28;20679;-68
2021/01/24 08:33:04;;;;;;;27.35;16.58;;;;;;;2.22;79.33;99527.56;10167031;28;20049;-67
2021/01/24 08:38:01;;;;;;;24.40;16.70;;;;;;;2.22;79.75;99549.13;10164861;28;20549;-68
2021/01/24 08:42:57;;;;;;;29.27;16.52;;;;;;;2.28;79.93;99558.78;10162310;28;20047;-68
2021/01/24 08:48:01;;;;;;;25.17;17.17;;;;;;;2.22;80.12;99559.13;10165740;28;20070;-67
2021/01/24 08:53:00;;;;;;;29.52;17.50;;;;;;;2.26;80.69;99560.94;10168543;28;20074;-66
2021/01/24 08:57:57;;;;;;;28.73;18.02;;;;;;;2.38;80.22;99567.81;10182316;28;20049;-67
2021/01/24 09:02:53;;;;;;;28.15;17.55;;;;;;;2.49;79.55;99563.88;10165382;28;20073;-68
2021/01/24 09:07:49;;;;;;;25.55;16.65;;;;;;;2.56;79.13;99569.72;10170307;28;20081;-65
2021/01/24 09:12:52;;;;;;;28.55;18.08;;;;;;;2.57;79.28;99573.22;10168211;28;20778;-67
2021/01/24 09:17:49;;;;;;;28.90;15.90;;;;;;;2.59;79.77;99579.13;10170179;28;20046;-67
2021/01/24 09:22:46;;;;;;;28.60;17.35;;;;;;;2.67;79.40;99576.56;10162316;28;20042;-68
2021/01/24 09:27:42;;;;;;;27.50;17.70;;;;;;;2.62;79.12;99584.75;10171898;28;20458;-67
2021/01/24 09:32:39;;;;;;;26.70;16.95;;;;;;;2.67;78.81;99587.38;10178167;28;20070;-67
2021/01/24 09:37:36;;;;;;;28.63;17.60;;;;;;;2.56;80.94;99596.69;10163080;28;20045;-67
2021/01/24 09:42:32;;;;;;;27.48;18.20;;;;;;;2.65;80.57;99592.25;10175745;28;20065;-67
2021/01/24 09:47:28;;;;;;;27.92;18.15;;;;;;;2.64;80.98;99597.94;10167683;28;20046;-65
2021/01/24 09:52:25;;;;;;;30.45;17.90;;;;;;;2.65;81.68;99600.34;10162425;28;20045;-68
2021/01/24 09:57:21;;;;;;;31.50;17.95;;;;;;;2.71;81.84;99599.16;10172926;28;20042;-68
2021/01/24 10:02:17;;;;;;;27.08;18.17;;;;;;;2.78;81.33;99603.41;10179511;28;20797;-66
2021/01/24 10:07:13;;;;;;;28.25;16.85;;;;;;;2.81;81.57;99608.19;10180273;28;20068;-66
2021/01/24 10:12:09;;;;;;;27.38;16.95;;;;;;;2.84;82.03;99607.63;10163861;28;20385;-65
2021/01/24 10:17:05;;;;;;;26.00;15.35;;;;;;;2.88;81.39;99612.16;10159991;28;20041;-66
2021/01/24 10:22:01;;;;;;;25.17;15.23;;;;;;;2.93;80.86;99622.88;10165623;28;20053;-65
2021/01/24 10:26:57;;;;;;;26.05;14.70;;;;;;;2.95;80.31;99614.47;10177208;28;20097;-67
2021/01/24 10:31:54;;;;;;;21.20;14.02;;;;;;;3.01;80.64;99616.00;10180434;28;20057;-65
2021/01/24 10:36:51;;;;;;;23.75;14.95;;;;;;;2.79;81.14;99618.50;10169452;28;20169;-68
2021/01/24 10:41:47;;;;;;;22.23;13.55;;;;;;;2.76;81.76;99613.69;10173030;28;20052;-68
2021/01/24 10:46:44;;;;;;;21.60;14.20;;;;;;;2.92;81.71;99620.44;10172525;28;20165;-66
2021/01/24 10:51:40;;;;;;;22.42;14.82;;;;;;;2.97;81.77;99620.41;10181303;28;20589;-66
2021/01/24 10:56:36;;;;;;;26.40;15.93;;;;;;;3.04;81.67;99626.22;10192533;28;20077;-70
2021/01/24 11:01:32;;;;;;;27.13;15.85;;;;;;;3.05;81.96;99618.91;10181956;28;20470;-67
2021/01/24 11:06:28;;;;;;;24.70;16.25;;;;;;;3.09;81.36;99615.34;10178451;28;20291;-69
2021/01/24 11:11:24;;;;;;;27.30;16.50;;;;;;;3.07;81.78;99617.53;10174948;28;20050;-66
2021/01/24 11:16:20;;;;;;;20.67;13.30;;;;;;;3.14;81.38;99617.94;10167001;28;20738;-68
2021/01/24 11:21:16;;;;;;;26.42;13.50;;;;;;;3.20;81.95;99620.56;10177449;28;20054;-69
2021/01/24 11:26:12;;;;;;;20.38;13.32;;;;;;;3.11;81.16;99623.94;10176211;28;20430;-66
2021/01/24 11:31:09;;;;;;;19.38;12.73;;;;;;;3.20;81.21;99615.16;10172356;28;20752;-68
2021/01/24 11:36:05;;;;;;;17.98;12.15;;;;;;;3.38;80.12;99614.31;10169122;28;20073;-67
2021/01/24 11:41:01;;;;;;;23.60;13.25;;;;;;;3.38;79.06;99623.22;10175771;28;20041;-67
2021/01/24 11:45:58;;;;;;;20.00;13.10;;;;;;;3.45;78.01;99628.22;10168754;28;20500;-67
2021/01/24 11:50:54;;;;;;;18.10;13.10;;;;;;;3.42;77.67;99628.84;10171942;28;20050;-66
2021/01/24 11:55:52;;;;;;;20.25;13.95;;;;;;;3.37;77.05;99637.03;10169378;28;20038;-68
2021/01/24 12:00:48;;;;;;;21.05;14.65;;;;;;;3.35;77.76;99639.22;10161850;28;20424;-68
2021/01/24 12:05:45;;;;;;;23.13;14.95;;;;;;;3.37;78.55;99642.44;10160929;28;20061;-65
2021/01/24 12:10:42;;;;;;;20.83;14.15;;;;;;;3.52;78.10;99639.47;10151377;28;20129;-66
2021/01/24 12:15:39;;;;;;;22.75;15.13;;;;;;;3.58;77.97;99643.69;10173040;28;20058;-67
2021/01/24 12:20:35;;;;;;;21.92;14.98;;;;;;;3.36;76.61;99641.63;10173514;28;20096;-67
2021/01/24 12:25:31;;;;;;;22.00;15.93;;;;;;;3.27;76.97;99642.59;10173680;28;20152;-67
2021/01/24 12:30:27;;;;;;;28.25;16.17;;;;;;;3.39;77.24;99637.53;10172556;28;20050;-67
2021/01/24 12:35:23;;;;;;;21.55;14.20;;;;;;;3.49;76.70;99634.66;10164927;28;20049;-68
2021/01/24 12:40:19;;;;;;;27.88;17.08;;;;;;;3.50;76.52;99630.84;10172457;28;20108;-68
2021/01/24 12:45:15;;;;;;;25.20;15.82;;;;;;;3.50;76.84;99630.03;10159561;28;20070;-68
2021/01/24 12:50:12;;;;;;;23.48;14.95;;;;;;;3.61;77.05;99623.38;10165529;28;20046;-66
2021/01/24 12:55:08;;;;;;;22.77;14.82;;;;;;;3.55;77.15;99622.66;10166422;28;20056;-68
2021/01/24 13:00:07;;;;;;;25.13;15.50;;;;;;;3.62;76.84;99626.88;10162858;28;20054;-67
2021/01/24 13:05:05;;;;;;;23.42;16.30;;;;;;;3.61;77.43;99626.06;10167909;28;20129;-68
2021/01/24 13:10:03;;;;;;;27.20;16.75;;;;;;;3.58;77.87;99627.47;10168868;28;20054;-68
2021/01/24 13:14:59;;;;;;;25.38;16.48;;;;;;;3.40;77.45;99631.03;10175007;28;20046;-66
2021/01/24 13:19:55;;;;;;;27.85;17.15;;;;;;;3.64;77.56;99638.19;10176119;28;20487;-67
2021/01/24 13:24:51;;;;;;;26.50;15.80;;;;;;;3.56;77.82;99640.47;10173200;28;20409;-70
2021/01/24 13:29:47;;;;;;;25.48;17.17;;;;;;;3.59;77.88;99645.28;10172268;28;20700;-70
2021/01/24 13:34:44;;;;;;;26.05;17.70;;;;;;;3.62;78.16;99643.09;10158977;28;20073;-70
2021/01/24 13:39:41;;;;;;;23.92;16.77;;;;;;;3.65;78.46;99645.22;10172577;28;20038;-69
2021/01/24 13:44:40;;;;;;;25.17;16.75;;;;;;;3.59;78.45;99653.38;10172928;28;20053;-69
2021/01/24 13:49:36;;;;;;;23.13;15.93;;;;;;;3.42;78.75;99644.25;10162756;28;20519;-69
2021/01/24 13:54:32;;;;;;;27.92;17.30;;;;;;;3.54;78.65;99653.47;10160216;28;20085;-68
2021/01/24 13:59:28;;;;;;;26.45;16.20;;;;;;;3.50;78.76;99647.06;10181095;28;20054;-69
2021/01/24 14:04:24;;;;;;;31.00;17.38;;;;;;;3.59;78.50;99642.56;10188977;28;20042;-73
2021/01/24 14:09:21;;;;;;;30.17;18.63;;;;;;;3.49;79.10;99650.88;10165550;28;20042;-68
2021/01/24 14:14:17;;;;;;;24.90;16.35;;;;;;;3.45;78.96;99649.06;10179520;28;20042;-67
2021/01/24 14:19:13;;;;;;;24.52;16.80;;;;;;;3.43;79.53;99657.44;10169979;28;20069;-64
2021/01/24 14:24:09;;;;;;;28.92;16.25;;;;;;;3.51;78.54;99664.88;10181741;28;20053;-68
2021/01/24 14:29:06;;;;;;;29.27;18.02;;;;;;;3.49;79.18;99667.09;10174570;28;20933;-67
2021/01/24 14:34:01;;;;;;;27.17;18.40;;;;;;;3.48;79.40;99662.78;10170290;28;20045;-67
2021/01/24 14:38:57;;;;;;;30.63;18.85;;;;;;;3.47;80.25;99671.19;10171192;28;20048;-67
2021/01/24 14:43:55;;;;;;;34.47;19.10;;;;;;;3.57;80.20;99674.53;10180081;28;20052;-66
2021/01/24 14:48:51;;;;;;;30.38;17.73;;;;;;;3.48;79.71;99679.00;10182611;28;20056;-66
2021/01/24 14:53:47;;;;;;;28.08;18.13;;;;;;;3.63;79.79;99679.84;10180915;28;20427;-67
2021/01/24 14:58:43;;;;;;;27.38;16.52;;;;;;;3.63;78.98;99677.13;10170623;28;20077;-66
2021/01/24 15:03:39;;;;;;;22.60;15.52;;;;;;;3.24;80.11;99686.41;10165712;28;20546;-66
2021/01/24 15:08:36;;;;;;;21.52;14.27;;;;;;;3.13;80.47;99691.97;10170502;28;20046;-67
2021/01/24 15:13:31;;;;;;;18.98;12.40;;;;;;;2.67;80.26;99694.50;10172471;28;20526;-67
2021/01/24 15:18:27;;;;;;;23.05;14.07;;;;;;;2.76;79.99;99686.56;10174839;28;20497;-67
2021/01/24 15:23:24;;;;;;;22.80;14.00;;;;;;;2.58;81.19;99680.06;10163819;28;20132;-67
2021/01/24 15:28:20;;;;;;;21.00;13.98;;;;;;;2.77;81.52;99674.69;10165685;28;20042;-67
2021/01/24 15:33:16;;;;;;;22.25;15.25;;;;;;;2.86;81.19;99675.63;10167270;28;20744;-67
2021/01/24 15:38:12;;;;;;;23.05;14.90;;;;;;;2.92;81.05;99690.66;10159536;28;20089;-67
2021/01/24 15:43:08;;;;;;;24.27;16.20;;;;;;;2.92;80.90;99685.25;10173037;28;20079;-67
2021/01/24 15:48:04;;;;;;;25.23;17.23;;;;;;;2.84;80.91;99692.13;10180466;28;20092;-67
2021/01/24 15:53:00;;;;;;;26.95;16.52;;;;;;;2.77;80.76;99698.97;10170064;28;20050;-67
2021/01/24 15:57:56;;;;;;;25.05;16.23;;;;;;;2.88;80.71;99705.84;10171634;28;20046;-67
2021/01/24 16:02:52;;;;;;;25.88;16.05;;;;;;;2.87;81.38;99704.22;10167426;28;20496;-67
2021/01/24 16:07:49;;;;;;;26.10;16.58;;;;;;;2.91;81.25;99707.97;10178801;28;20053;-67
2021/01/24 16:12:45;;;;;;;27.00;18.50;;;;;;;2.95;81.60;99709.78;10181227;28;20074;-66
2021/01/24 16:17:41;;;;;;;28.15;17.63;;;;;;;2.96;80.87;99707.88;10175525;28;20077;-66
2021/01/24 16:22:37;;;;;;;25.27;17.05;;;;;;;2.97;81.20;99709.50;10173996;28;20101;-68
2021/01/24 16:27:34;;;;;;;28.67;19.38;;;;;;;3.03;80.67;99708.31;10173219;28;20153;-67
2021/01/24 16:32:30;;;;;;;26.70;18.27;;;;;;;3.10;80.93;99714.16;10171508;28;20141;-67
2021/01/24 16:37:26;;;;;;;27.88;18.85;;;;;;;3.10;81.03;99714.16;10169750;28;20042;-67
2021/01/24 16:42:28;;;;;;;27.95;18.77;;;;;;;3.09;81.79;99715.25;10297848;27;20553;-66
2021/01/24 16:47:26;;;;;;;26.60;16.92;;;;;;;3.10;80.87;99708.75;10218543;28;20060;-68
2021/01/24 16:52:22;;;;;;;28.55;18.60;;;;;;;2.93;81.16;99713.88;10206147;28;20045;-66
2021/01/24 16:57:19;;;;;;;29.65;17.65;;;;;;;2.96;80.62;99702.47;10193935;28;20057;-65
2021/01/24 17:02:15;;;;;;;26.48;19.23;;;;;;;2.91;79.97;99705.25;10201491;28;20046;-66
2021/01/24 17:07:11;;;;;;;31.08;17.60;;;;;;;2.68;80.41;99705.00;10198537;28;20420;-66
2021/01/24 17:12:08;;;;;;;29.52;18.67;;;;;;;2.64;80.88;99703.97;10206524;28;20100;-66
2021/01/24 17:17:04;;;;;;;31.20;19.40;;;;;;;2.59;81.78;99714.84;10210596;28;20041;-65
2021/01/24 17:22:00;;;;;;;31.02;18.30;;;;;;;2.76;81.49;99724.34;10218665;28;20041;-66
2021/01/24 17:26:57;;;;;;;32.28;18.60;;;;;;;2.84;82.01;99710.22;10244585;28;20183;-66
2021/01/24 17:31:53;;;;;;;32.00;19.95;;;;;;;2.95;81.56;99717.09;10255828;28;20543;-66
2021/01/24 17:36:50;;;;;;;30.70;19.63;;;;;;;2.98;81.81;99708.41;10246704;28;20049;-67
2021/01/24 17:41:47;;;;;;;32.95;19.60;;;;;;;2.99;81.65;99707.28;10256777;28;20511;-67
2021/01/24 17:46:43;;;;;;;27.50;16.73;;;;;;;2.97;81.31;99706.81;10261068;28;20053;-67
2021/01/24 17:51:39;;;;;;;30.13;19.50;;;;;;;2.97;81.71;99709.50;10234738;28;20049;-67
2021/01/24 17:56:35;;;;;;;37.75;19.65;;;;;;;3.02;81.92;99701.31;10225259;28;20049;-67
2021/01/24 18:01:31;;;;;;;30.52;19.98;;;;;;;3.00;81.40;99703.50;10205323;28;20061;-68
2021/01/24 18:06:28;;;;;;;31.10;18.48;;;;;;;3.10;81.29;99703.34;10223723;28;20103;-68
2021/01/24 18:11:24;;;;;;;32.72;21.25;;;;;;;3.08;81.18;99705.53;10215151;28;20056;-67
2021/01/24 18:16:20;;;;;;;36.60;21.38;;;;;;;3.02;81.73;99712.13;10220051;28;20515;-68
2021/01/24 18:21:16;;;;;;;33.38;22.70;;;;;;;3.08;81.47;99700.13;10224715;28;20129;-67
2021/01/24 18:26:12;;;;;;;34.72;22.10;;;;;;;3.09;81.46;99706.38;10220453;28;20128;-68
2021/01/24 18:31:08;;;;;;;33.08;21.75;;;;;;;3.04;81.90;99707.25;10221099;28;20133;-67
2021/01/24 18:36:05;;;;;;;32.70;22.33;;;;;;;2.91;83.08;99710.66;10220931;28;20645;-67
2021/01/24 18:41:01;;;;;;;38.50;23.55;;;;;;;2.96;82.88;99713.28;10219902;28;20450;-68
2021/01/24 18:45:59;;;;;;;39.38;24.38;;;;;;;3.15;82.47;99705.97;10225859;28;20046;-67
2021/01/24 18:50:55;;;;;;;35.40;23.58;;;;;;;3.27;81.66;99712.84;10216779;28;20049;-67
2021/01/24 18:55:51;;;;;;;37.85;24.10;;;;;;;3.08;81.57;99716.34;10204887;28;20571;-67
2021/01/24 19:00:47;;;;;;;36.38;24.02;;;;;;;3.02;80.56;99714.84;10213987;28;20046;-67
2021/01/24 19:05:43;;;;;;;35.67;19.75;;;;;;;3.01;80.72;99718.59;10214070;28;20577;-67
2021/01/24 19:10:40;;;;;;;30.52;19.00;;;;;;;2.60;81.46;99732.66;10206513;28;20053;-67
2021/01/24 19:15:36;;;;;;;24.58;14.88;;;;;;;2.63;81.08;99726.69;10220617;28;20404;-67
2021/01/24 19:20:33;;;;;;;26.13;16.77;;;;;;;2.67;81.82;99727.72;10208288;28;20393;-67
2021/01/24 19:25:29;;;;;;;26.10;17.10;;;;;;;2.77;81.94;99720.56;10212344;28;20631;-67
2021/01/24 19:30:25;;;;;;;28.67;19.20;;;;;;;2.65;82.43;99724.50;10216042;28;20172;-68
2021/01/24 19:35:22;;;;;;;30.33;18.42;;;;;;;2.58;83.01;99721.34;10202066;28;20121;-67
2021/01/24 19:40:22;;;;;;;25.00;16.63;;;;;;;2.51;82.77;99726.28;10214851;28;20050;-67
2021/01/24 19:45:18;;;;;;;24.48;15.93;;;;;;;2.41;83.30;99718.31;10217198;28;20085;-67
2021/01/24 19:50:17;;;;;;;28.20;16.10;;;;;;;2.50;83.15;99721.97;10207377;28;20045;-68
2021/01/24 19:55:13;;;;;;;26.20;14.35;;;;;;;2.50;83.18;99713.88;10203893;28;20057;-67
2021/01/24 20:00:12;;;;;;;18.88;12.57;;;;;;;2.46;83.22;99715.53;10193926;28;20070;-68
2021/01/24 20:05:09;;;;;;;17.20;9.70;;;;;;;2.24;83.55;99719.56;10209589;28;20491;-68
2021/01/24 20:10:07;;;;;;;15.18;9.20;;;;;;;2.41;83.50;99721.00;10212313;28;20446;-67
2021/01/24 20:15:03;;;;;;;14.77;8.18;;;;;;;2.33;82.92;99719.75;10206767;28;20084;-67
2021/01/24 20:20:00;;;;;;;14.07;7.97;;;;;;;2.39;83.17;99723.19;10209596;28;20049;-68
2021/01/24 20:24:56;;;;;;;11.57;7.32;;;;;;;2.31;83.02;99720.03;10208578;28;20140;-67
2021/01/24 20:29:52;;;;;;;16.02;7.68;;;;;;;2.26;82.47;99722.78;10212210;28;20132;-67
2021/01/24 20:34:48;;;;;;;12.30;7.03;;;;;;;2.40;82.97;99716.72;10207573;28;20507;-67
2021/01/24 20:39:45;;;;;;;11.98;7.28;;;;;;;2.39;82.98;99721.31;10210607;28;20072;-67
2021/01/24 20:44:41;;;;;;;12.43;7.38;;;;;;;2.35;82.55;99741.84;10211374;28;20053;-67
2021/01/24 20:49:37;;;;;;;9.77;6.13;;;;;;;2.43;81.85;99726.91;10205471;28;20044;-66
2021/01/24 20:54:33;;;;;;;9.02;5.95;;;;;;;2.61;81.21;99723.47;10213901;28;20503;-66
2021/01/24 20:59:29;;;;;;;11.02;5.10;;;;;;;2.64;81.64;99728.28;10205607;28;20041;-70
2021/01/24 21:04:25;;;;;;;11.73;5.40;;;;;;;2.57;81.57;99722.41;10216325;28;20072;-69
2021/01/24 21:09:21;;;;;;;8.77;4.82;;;;;;;2.52;80.71;99719.78;10215398;28;20076;-69
2021/01/24 21:14:17;;;;;;;8.15;4.97;;;;;;;2.57;81.24;99722.41;10225214;28;20042;-69
2021/01/24 21:19:13;;;;;;;8.05;4.78;;;;;;;2.49;80.85;99723.88;10215019;28;20046;-67
2021/01/24 21:24:10;;;;;;;9.02;4.60;;;;;;;2.29;82.29;99733.00;10204149;28;20049;-68
2021/01/24 21:29:07;;;;;;;8.05;4.70;;;;;;;2.10;83.47;99724.84;10211035;28;20526;-68
2021/01/24 21:34:03;;;;;;;7.95;5.40;;;;;;;2.07;83.86;99735.41;10219689;28;20052;-69
2021/01/24 21:38:59;;;;;;;8.85;5.47;;;;;;;2.00;83.60;99733.03;10224151;28;20404;-68
2021/01/24 21:43:55;;;;;;;8.57;5.15;;;;;;;2.16;82.30;99733.69;10238203;28;20045;-69
2021/01/24 21:48:51;;;;;;;8.48;5.60;;;;;;;2.16;82.72;99728.31;10230178;28;20049;-69
2021/01/24 21:53:47;;;;;;;9.05;6.00;;;;;;;2.19;82.63;99733.13;10228361;28;20045;-69
2021/01/24 21:58:43;;;;;;;10.57;5.78;;;;;;;2.22;82.69;99737.94;10220514;28;20128;-69
2021/01/24 22:03:39;;;;;;;9.40;5.18;;;;;;;2.18;83.01;99742.31;10224155;28;20060;-68
2021/01/24 22:08:35;;;;;;;10.55;6.05;;;;;;;2.18;83.00;99747.69;10227583;28;20042;-69
2021/01/24 22:13:30;;;;;;;9.00;5.80;;;;;;;2.21;83.52;99744.44;10228529;28;20064;-69
2021/01/24 22:18:27;;;;;;;10.43;6.15;;;;;;;2.00;84.79;99761.91;10232071;28;20046;-68
2021/01/24 22:23:23;;;;;;;10.55;6.50;;;;;;;1.91;85.60;99750.13;10229663;28;20053;-68
2021/01/24 22:28:21;;;;;;;11.02;7.00;;;;;;;1.79;86.66;99743.22;10227410;28;20046;-68
2021/01/24 22:33:19;;;;;;;9.23;6.32;;;;;;;2.01;85.93;99753.50;10228633;28;20049;-66
2021/01/24 22:38:15;;;;;;;12.43;7.47;;;;;;;1.94;86.15;99752.25;10224095;28;20037;-67
2021/01/24 22:43:11;;;;;;;11.02;7.63;;;;;;;2.09;85.78;99749.41;10232475;28;20049;-67
2021/01/24 22:48:08;;;;;;;10.95;7.18;;;;;;;2.07;85.92;99757.78;10226160;28;20408;-67